Huvudsida
METAR-TAF:

METAR-TAF

Flygplatser :

Port Moresby, Papua Nya Guinea

latitud: 09-26S, longitud: 147-13E, höjd: 38 m

Aktuellt väderrapport

Denna rapport gjordes för 16 minuter sedan, klockan 18:00 UTC
Vind 3 kt från nord/nordväst
Temperatur 23°C
Fuktighet 94%
Tryck 1008 hPa
Sikt 10 km eller mer

METAR: AYPY 191800Z 33003KT 9999 NSC 23/22 Q1008

Tid: 04:16 (18:16 UTC)

Väderprognos

Denna rapport gjordes för 9 timmar och 15 minuter sedan, klockan 09:01 UTC
Prognos gäller från 19 kl. 12 UTC till 20 kl. 12 UTC
Vind 3 kt varierande vindriktning
Sikt 10 km eller mer
Spridda moln på en höjd av 4000 ft
Spridda moln på en höjd av 14000 ft
Från 19 kl. 1500 UTC
Vind kt från nord
Sikt 10 km eller mer
Spridda moln på en höjd av 4000 ft

TAF: AYPY 190901Z 1912/2012 VRB03KT 9999 SCT040 SCT140 FM191500 00000KT 9999 SCT040

Aktuella väderrapporter och prognoser från 4000 flygplatser (METAR- och TAF-rapporter).

De tillgängliga stationerna syns som gula och röda prickar på kartan.

För musen över prickarna för att se namnen på stationerna.

Klicka sedan för att få väderrapporter och prognoser.

För att ändra kartan: Klicka på de gröna knapparna med ett svart kors på för att zooma in; den gröna knappen med ett streck på för att zooma ut; eller på de gröna pilarna för angränsande kartor.


METAR-TAF: